Time;durP1;ratioP1;P1;durP2;ratioP2;P2;SDS_P1;SDS_P2;PMS_P1;PMS_P2;Temp;Humidity;BMP_temperature;BMP_pressure;BME280_temperature;BME280_humidity;BME280_pressure;Samples;Min_cycle;Max_cycle;Signal;HPM_P1;HPM_P2
2023/01/24 00:01:43;;;;;;;77.35;17.15;;;;;;;;;;5073772;28;20211;-70
2023/01/24 00:04:10;;;;;;;76.70;17.20;;;;;;;;;;5073706;28;20221;-70
2023/01/24 00:06:38;;;;;;;78.50;17.65;;;;;;;;;;5073514;28;20224;-70
2023/01/24 00:09:05;;;;;;;74.43;15.63;;;;;;;;;;5072995;28;20474;-70
2023/01/24 00:11:32;;;;;;;74.55;16.45;;;;;;;;;;5073365;28;20585;-70
2023/01/24 00:13:59;;;;;;;74.45;15.85;;;;;;;;;;5073316;28;20233;-69
2023/01/24 00:16:27;;;;;;;75.80;15.20;;;;;;;;;;5073559;28;20208;-70
2023/01/24 00:18:54;;;;;;;73.57;15.48;;;;;;;;;;5072778;28;20208;-70
2023/01/24 00:21:23;;;;;;;74.63;16.55;;;;;;;;;;5073146;28;20215;-70
2023/01/24 00:23:51;;;;;;;74.78;15.20;;;;;;;;;;5072872;28;20737;-69
2023/01/24 00:26:19;;;;;;;75.75;15.80;;;;;;;;;;5073863;28;20220;-69
2023/01/24 00:28:46;;;;;;;73.43;14.80;;;;;;;;;;5072321;28;20213;-69
2023/01/24 00:31:14;;;;;;;74.63;15.23;;;;;;;;;;5073177;28;20217;-69
2023/01/24 00:33:42;;;;;;;76.07;15.20;;;;;;;;;;5072977;28;20232;-70
2023/01/24 00:36:10;;;;;;;73.55;14.93;;;;;;;;;;5072797;28;20591;-70
2023/01/24 00:38:37;;;;;;;74.65;15.77;;;;;;;;;;5072075;28;20704;-70
2023/01/24 00:41:04;;;;;;;73.72;15.10;;;;;;;;;;5073051;28;20224;-69
2023/01/24 00:43:31;;;;;;;72.70;14.00;;;;;;;;;;5072813;28;20235;-70
2023/01/24 00:45:58;;;;;;;72.25;14.55;;;;;;;;;;5072387;28;20232;-70
2023/01/24 00:48:25;;;;;;;71.35;14.63;;;;;;;;;;5072697;28;20201;-70
2023/01/24 00:50:54;;;;;;;73.05;15.07;;;;;;;;;;5071759;28;20296;-69
2023/01/24 00:53:21;;;;;;;73.68;15.23;;;;;;;;;;5072436;28;20228;-69
2023/01/24 00:55:50;;;;;;;73.55;15.10;;;;;;;;;;5072620;28;20467;-70
2023/01/24 00:58:17;;;;;;;74.50;15.57;;;;;;;;;;5072519;28;20250;-69
2023/01/24 01:00:45;;;;;;;78.32;17.00;;;;;;;;;;5071966;28;20208;-69
2023/01/24 01:03:13;;;;;;;72.38;14.77;;;;;;;;;;5072303;28;20735;-70
2023/01/24 01:05:40;;;;;;;72.75;15.25;;;;;;;;;;5072349;28;20218;-69
2023/01/24 01:08:09;;;;;;;72.97;14.80;;;;;;;;;;5072274;28;20205;-69
2023/01/24 01:10:36;;;;;;;74.13;14.82;;;;;;;;;;5071964;28;20205;-70
2023/01/24 01:13:04;;;;;;;74.50;16.15;;;;;;;;;;5072348;28;20247;-70
2023/01/24 01:15:31;;;;;;;73.95;15.18;;;;;;;;;;5072297;28;20201;-69
2023/01/24 01:17:58;;;;;;;73.65;15.05;;;;;;;;;;5072014;28;20201;-70
2023/01/24 01:20:26;;;;;;;73.30;15.77;;;;;;;;;;5071490;28;20211;-70
2023/01/24 01:22:53;;;;;;;73.22;15.10;;;;;;;;;;5072154;28;20278;-69
2023/01/24 01:25:22;;;;;;;71.82;14.27;;;;;;;;;;5071926;28;20213;-70
2023/01/24 01:27:49;;;;;;;75.38;15.77;;;;;;;;;;5071974;28;20224;-70
2023/01/24 01:30:16;;;;;;;73.25;14.90;;;;;;;;;;5071350;28;20205;-70
2023/01/24 01:32:43;;;;;;;75.85;15.75;;;;;;;;;;5071850;28;20234;-69
2023/01/24 01:35:11;;;;;;;77.32;14.85;;;;;;;;;;5072107;28;20201;-70
2023/01/24 01:37:38;;;;;;;75.88;15.05;;;;;;;;;;5072267;28;20204;-70
2023/01/24 01:40:05;;;;;;;74.82;14.90;;;;;;;;;;5071054;28;20205;-69
2023/01/24 01:42:46;;;;;;;75.05;16.20;;;;;;;;;;5071750;28;20228;-70
2023/01/24 01:45:35;;;;;;;74.72;15.40;;;;;;;;;;5071702;28;20749;-70
2023/01/24 01:48:04;;;;;;;75.00;15.65;;;;;;;;;;5071827;28;20714;-69
2023/01/24 01:50:33;;;;;;;74.57;15.82;;;;;;;;;;5071093;28;20228;-70
2023/01/24 01:53:00;;;;;;;75.32;15.57;;;;;;;;;;5071840;28;20232;-70
2023/01/24 01:55:33;;;;;;;75.97;16.83;;;;;;;;;;5071670;28;20211;-70
2023/01/24 01:58:02;;;;;;;72.63;15.18;;;;;;;;;;5070867;28;20201;-70
2023/01/24 02:00:30;;;;;;;74.53;14.95;;;;;;;;;;5071175;28;20588;-70
2023/01/24 02:03:37;;;;;;;73.35;15.57;;;;;;;;;;5071690;28;20232;-70
2023/01/24 02:05:46;;;;;;;72.72;14.85;;;;;;;;;;5071651;28;20235;-69
2023/01/24 02:08:15;;;;;;;75.38;15.80;;;;;;;;;;5071343;28;20228;-70
2023/01/24 02:13:29;;;;;;;73.53;14.20;;;;;;;;;;5071479;28;20227;-69
2023/01/24 02:16:05;;;;;;;73.97;15.30;;;;;;;;;;5071512;28;20209;-70
2023/01/24 02:18:33;;;;;;;71.60;13.60;;;;;;;;;;5070920;28;20257;-70
2023/01/24 02:21:00;;;;;;;73.60;14.55;;;;;;;;;;5071836;28;20209;-70
2023/01/24 02:23:32;;;;;;;74.03;15.32;;;;;;;;;;5071577;28;20229;-70
2023/01/24 02:26:04;;;;;;;74.35;13.73;;;;;;;;;;5071524;28;20201;-70
2023/01/24 02:28:31;;;;;;;71.13;13.98;;;;;;;;;;5071114;28;20205;-70
2023/01/24 02:30:58;;;;;;;72.22;14.18;;;;;;;;;;5071130;28;20213;-70
2023/01/24 02:33:26;;;;;;;72.68;15.23;;;;;;;;;;5071351;28;20221;-69
2023/01/24 02:36:08;;;;;;;73.70;15.43;;;;;;;;;;5071331;28;20209;-70
2023/01/24 02:38:35;;;;;;;71.68;13.60;;;;;;;;;;5070677;28;20374;-70
2023/01/24 02:41:06;;;;;;;72.88;15.70;;;;;;;;;;5067352;28;20206;-69
2023/01/24 02:43:36;;;;;;;74.72;14.02;;;;;;;;;;5071358;28;20231;-69
2023/01/24 02:46:03;;;;;;;72.00;14.45;;;;;;;;;;5071541;28;20590;-70
2023/01/24 02:48:30;;;;;;;74.00;16.38;;;;;;;;;;5071182;28;20228;-70
2023/01/24 02:53:42;;;;;;;74.03;14.35;;;;;;;;;;5071301;28;20220;-70
2023/01/24 02:58:56;;;;;;;73.35;14.13;;;;;;;;;;5070384;28;20212;-70
2023/01/24 03:01:24;;;;;;;72.75;14.68;;;;;;;;;;5071490;28;20208;-70
2023/01/24 03:03:52;;;;;;;71.15;14.20;;;;;;;;;;5071034;28;20228;-70
2023/01/24 03:06:19;;;;;;;71.68;13.77;;;;;;;;;;5071172;28;20278;-69
2023/01/24 03:08:46;;;;;;;74.13;14.65;;;;;;;;;;5072417;28;20696;-69
2023/01/24 03:11:13;;;;;;;74.22;14.13;;;;;;;;;;5074805;28;20218;-70
2023/01/24 03:35:53;;;;;;;74.10;14.57;;;;;;;;;;5074445;28;20203;-70
2023/01/24 03:41:05;;;;;;;73.07;14.55;;;;;;;;;;5074033;28;20570;-69
2023/01/24 03:43:33;;;;;;;75.70;15.45;;;;;;;;;;5074288;28;20233;-69
2023/01/24 03:46:00;;;;;;;73.80;14.63;;;;;;;;;;5074043;28;20209;-70
2023/01/24 03:48:36;;;;;;;74.63;14.93;;;;;;;;;;5074075;28;20220;-69
2023/01/24 03:53:47;;;;;;;76.68;16.40;;;;;;;;;;5073823;28;20228;-70
2023/01/24 03:56:15;;;;;;;72.18;14.95;;;;;;;;;;5073979;28;20212;-70
2023/01/24 03:58:42;;;;;;;76.00;15.57;;;;;;;;;;5073001;28;20220;-70
2023/01/24 04:01:09;;;;;;;76.38;15.20;;;;;;;;;;5073774;28;20388;-70
2023/01/24 04:03:38;;;;;;;73.65;16.23;;;;;;;;;;5073617;28;20248;-70
2023/01/24 04:06:05;;;;;;;72.43;14.10;;;;;;;;;;5073502;28;20209;-69
2023/01/24 04:08:32;;;;;;;73.70;15.57;;;;;;;;;;5073115;28;20225;-69
2023/01/24 04:10:59;;;;;;;74.32;16.05;;;;;;;;;;5073603;28;20674;-70
2023/01/24 04:13:26;;;;;;;74.57;16.35;;;;;;;;;;5073499;28;20221;-69
2023/01/24 04:15:53;;;;;;;78.13;15.13;;;;;;;;;;5073354;28;20680;-70
2023/01/24 04:18:20;;;;;;;75.63;16.15;;;;;;;;;;5073245;28;20211;-69
2023/01/24 04:20:49;;;;;;;75.78;15.68;;;;;;;;;;5071687;28;20215;-69
2023/01/24 04:23:16;;;;;;;80.25;16.42;;;;;;;;;;5073313;28;20616;-69
2023/01/24 04:25:43;;;;;;;77.80;15.13;;;;;;;;;;5073207;28;20213;-69
2023/01/24 04:28:10;;;;;;;74.10;15.88;;;;;;;;;;5073323;28;20242;-69
2023/01/24 04:30:37;;;;;;;75.63;16.40;;;;;;;;;;5072431;28;20589;-69
2023/01/24 04:33:04;;;;;;;73.03;14.93;;;;;;;;;;5072914;28;20251;-69
2023/01/24 04:35:31;;;;;;;73.20;15.63;;;;;;;;;;5073259;28;20208;-69
2023/01/24 04:38:00;;;;;;;74.03;14.95;;;;;;;;;;5072820;28;20205;-69
2023/01/24 04:40:28;;;;;;;77.05;15.50;;;;;;;;;;5072420;28;20239;-70
2023/01/24 04:42:57;;;;;;;74.10;14.98;;;;;;;;;;5072700;28;20239;-69
2023/01/24 04:45:24;;;;;;;74.13;15.32;;;;;;;;;;5072828;28;20208;-69
2023/01/24 04:47:51;;;;;;;77.10;15.73;;;;;;;;;;5072888;28;20573;-70
2023/01/24 04:50:18;;;;;;;79.32;18.70;;;;;;;;;;5072278;28;20213;-70
2023/01/24 04:52:45;;;;;;;75.78;14.52;;;;;;;;;;5072771;28;20594;-69
2023/01/24 04:55:13;;;;;;;77.95;17.77;;;;;;;;;;5072771;28;20201;-70
2023/01/24 04:57:41;;;;;;;75.35;15.23;;;;;;;;;;5072633;28;20593;-69
2023/01/24 05:00:09;;;;;;;80.25;16.90;;;;;;;;;;5071686;28;20216;-69
2023/01/24 05:02:37;;;;;;;75.90;14.90;;;;;;;;;;5072364;28;20225;-70
2023/01/24 05:05:04;;;;;;;73.18;15.02;;;;;;;;;;5072632;28;20286;-69
2023/01/24 05:07:31;;;;;;;76.68;14.98;;;;;;;;;;5072419;28;20221;-68
2023/01/24 05:09:58;;;;;;;76.80;16.35;;;;;;;;;;5071497;28;20296;-70
2023/01/24 05:12:27;;;;;;;75.90;15.35;;;;;;;;;;5072249;28;20251;-69
2023/01/24 05:14:54;;;;;;;75.15;16.17;;;;;;;;;;5072092;28;20205;-69
2023/01/24 05:17:21;;;;;;;77.70;17.08;;;;;;;;;;5072519;28;20201;-69
2023/01/24 05:19:48;;;;;;;77.40;15.57;;;;;;;;;;5071523;28;20298;-69
2023/01/24 05:22:15;;;;;;;75.05;16.10;;;;;;;;;;5072038;28;20681;-70
2023/01/24 05:24:42;;;;;;;75.28;15.18;;;;;;;;;;5072089;28;20217;-70
2023/01/24 05:27:09;;;;;;;74.63;15.00;;;;;;;;;;5072421;28;20200;-69
2023/01/24 05:29:37;;;;;;;77.88;16.42;;;;;;;;;;5071649;28;20209;-69
2023/01/24 05:32:05;;;;;;;76.30;16.30;;;;;;;;;;5071807;28;20212;-69
2023/01/24 05:34:32;;;;;;;78.57;16.75;;;;;;;;;;5072052;28;20205;-69
2023/01/24 05:36:59;;;;;;;77.05;15.40;;;;;;;;;;5071996;28;20215;-69
2023/01/24 05:39:26;;;;;;;77.15;15.85;;;;;;;;;;5071100;28;20205;-69
2023/01/24 05:41:53;;;;;;;77.30;16.40;;;;;;;;;;5071726;28;20205;-70
2023/01/24 05:44:20;;;;;;;76.78;15.70;;;;;;;;;;5071692;28;20234;-69
2023/01/24 05:46:49;;;;;;;75.80;15.60;;;;;;;;;;5071779;28;20299;-69
2023/01/24 05:49:16;;;;;;;77.88;16.25;;;;;;;;;;5070997;28;20259;-70
2023/01/24 05:51:43;;;;;;;78.03;17.27;;;;;;;;;;5071409;28;20211;-70
2023/01/24 05:54:10;;;;;;;78.75;17.92;;;;;;;;;;5071582;28;20731;-70
2023/01/24 05:56:37;;;;;;;79.45;17.58;;;;;;;;;;5071788;28;20215;-70
2023/01/24 05:59:04;;;;;;;77.10;15.48;;;;;;;;;;5071165;28;20370;-69
2023/01/24 06:01:31;;;;;;;77.75;16.35;;;;;;;;;;5071770;28;20306;-70
2023/01/24 06:04:00;;;;;;;78.85;18.63;;;;;;;;;;5071613;28;20235;-69
2023/01/24 06:06:27;;;;;;;77.40;16.90;;;;;;;;;;5071497;28;20685;-70
2023/01/24 06:08:54;;;;;;;78.50;18.33;;;;;;;;;;5070614;28;20231;-69
2023/01/24 06:11:22;;;;;;;78.90;17.13;;;;;;;;;;5071729;28;20209;-70
2023/01/24 06:13:50;;;;;;;78.57;15.68;;;;;;;;;;5071672;28;20231;-69
2023/01/24 06:16:18;;;;;;;81.97;18.15;;;;;;;;;;5071533;28;20214;-70
2023/01/24 06:18:45;;;;;;;76.60;16.05;;;;;;;;;;5070998;28;20201;-69
2023/01/24 06:21:20;;;;;;;82.38;18.17;;;;;;;;;;5071626;28;20201;-69
2023/01/24 06:23:47;;;;;;;80.13;18.30;;;;;;;;;;5071176;28;20224;-69
2023/01/24 06:26:14;;;;;;;76.57;17.10;;;;;;;;;;5071332;28;20693;-69
2023/01/24 06:28:42;;;;;;;78.15;17.23;;;;;;;;;;5070853;28;20225;-69
2023/01/24 06:31:14;;;;;;;81.38;17.58;;;;;;;;;;5071525;28;20211;-69
2023/01/24 06:33:44;;;;;;;80.45;18.33;;;;;;;;;;5071352;28;20716;-70
2023/01/24 06:36:17;;;;;;;76.15;14.90;;;;;;;;;;5071261;28;20305;-69
2023/01/24 06:38:47;;;;;;;78.40;17.55;;;;;;;;;;5070769;28;20229;-70
2023/01/24 06:41:16;;;;;;;82.00;18.50;;;;;;;;;;5071488;28;20207;-69
2023/01/24 06:43:43;;;;;;;78.72;16.83;;;;;;;;;;5073817;28;20233;-69
2023/01/24 06:46:10;;;;;;;76.85;17.10;;;;;;;;;;5075122;28;20214;-69
2023/01/24 06:48:37;;;;;;;79.75;17.70;;;;;;;;;;5074157;28;20225;-70
2023/01/24 06:51:04;;;;;;;79.78;18.85;;;;;;;;;;5075004;28;20201;-69
2023/01/24 06:53:33;;;;;;;80.85;18.45;;;;;;;;;;5075044;28;20224;-69
2023/01/24 06:56:01;;;;;;;81.13;16.80;;;;;;;;;;5075018;28;20207;-69
2023/01/24 06:58:28;;;;;;;79.82;16.83;;;;;;;;;;5074646;28;20569;-67
2023/01/24 07:00:55;;;;;;;76.32;15.77;;;;;;;;;;5074449;28;20207;-69
2023/01/24 07:03:22;;;;;;;75.90;15.95;;;;;;;;;;5074671;28;20228;-69
2023/01/24 07:05:50;;;;;;;81.63;18.02;;;;;;;;;;5074925;28;20277;-70
2023/01/24 07:08:20;;;;;;;80.28;16.98;;;;;;;;;;5074602;28;20221;-69
2023/01/24 07:10:47;;;;;;;77.20;17.10;;;;;;;;;;5074035;28;20234;-70
2023/01/24 07:13:16;;;;;;;78.85;16.75;;;;;;;;;;5074791;28;20232;-69
2023/01/24 07:15:43;;;;;;;79.13;17.85;;;;;;;;;;5074562;28;20577;-69
2023/01/24 07:18:12;;;;;;;80.43;17.00;;;;;;;;;;5074576;28;20208;-69
2023/01/24 07:20:40;;;;;;;78.97;18.27;;;;;;;;;;5073968;28;20208;-69
2023/01/24 07:23:11;;;;;;;79.90;17.63;;;;;;;;;;5074481;28;20598;-69
2023/01/24 07:25:38;;;;;;;76.65;15.35;;;;;;;;;;5074283;28;20231;-69
2023/01/24 07:28:06;;;;;;;77.10;17.25;;;;;;;;;;5074077;28;20245;-69
2023/01/24 07:30:34;;;;;;;81.07;18.02;;;;;;;;;;5073706;28;20211;-69
2023/01/24 07:33:01;;;;;;;80.63;17.90;;;;;;;;;;5074096;28;20725;-69
2023/01/24 07:35:29;;;;;;;79.53;18.58;;;;;;;;;;5074324;28;20204;-70
2023/01/24 07:37:56;;;;;;;79.90;17.88;;;;;;;;;;5074190;28;20201;-69
2023/01/24 07:40:23;;;;;;;78.50;17.63;;;;;;;;;;5073372;28;20208;-69
2023/01/24 07:42:50;;;;;;;76.15;17.40;;;;;;;;;;5073775;28;20321;-69
2023/01/24 07:45:20;;;;;;;79.22;17.17;;;;;;;;;;5074314;28;20205;-69
2023/01/24 07:47:48;;;;;;;79.25;15.68;;;;;;;;;;5073956;28;20215;-70
2023/01/24 07:50:15;;;;;;;76.90;17.15;;;;;;;;;;5073135;28;20228;-68
2023/01/24 07:52:42;;;;;;;79.40;15.98;;;;;;;;;;5073819;28;20554;-69
2023/01/24 07:55:10;;;;;;;78.63;16.00;;;;;;;;;;5072328;28;20205;-69
2023/01/24 07:57:37;;;;;;;77.47;17.25;;;;;;;;;;5074169;28;20201;-70
2023/01/24 08:00:05;;;;;;;78.22;16.83;;;;;;;;;;5072925;28;20205;-69
2023/01/24 08:02:32;;;;;;;81.50;15.90;;;;;;;;;;5073710;28;20228;-69
2023/01/24 08:05:00;;;;;;;80.10;17.40;;;;;;;;;;5073672;28;20215;-69
2023/01/24 08:07:27;;;;;;;76.10;15.35;;;;;;;;;;5073601;28;20695;-69
2023/01/24 08:09:54;;;;;;;76.57;16.15;;;;;;;;;;5073167;28;20229;-69
2023/01/24 08:12:22;;;;;;;74.75;15.15;;;;;;;;;;5073656;28;20225;-69
2023/01/24 08:14:49;;;;;;;79.45;16.98;;;;;;;;;;5073623;28;20575;-69
2023/01/24 08:17:16;;;;;;;83.53;16.85;;;;;;;;;;5073513;28;20208;-69
2023/01/24 08:19:43;;;;;;;79.72;17.48;;;;;;;;;;5072693;28;20204;-69
2023/01/24 08:22:12;;;;;;;79.22;17.00;;;;;;;;;;5073181;28;20317;-69
2023/01/24 08:24:39;;;;;;;78.18;16.85;;;;;;;;;;5073395;28;20225;-69
2023/01/24 08:27:06;;;;;;;80.20;17.13;;;;;;;;;;5073491;28;20702;-69
2023/01/24 08:29:33;;;;;;;76.43;16.15;;;;;;;;;;5072302;28;20225;-70
2023/01/24 08:32:00;;;;;;;78.18;17.13;;;;;;;;;;5073200;28;20205;-69
2023/01/24 08:34:27;;;;;;;79.72;15.73;;;;;;;;;;5073137;28;20222;-69
2023/01/24 08:36:55;;;;;;;78.65;15.90;;;;;;;;;;5072890;28;20682;-69
2023/01/24 08:39:23;;;;;;;76.75;15.40;;;;;;;;;;5072338;28;20212;-69
2023/01/24 08:41:50;;;;;;;76.75;16.23;;;;;;;;;;5072886;28;20677;-69
2023/01/24 08:44:17;;;;;;;78.80;16.52;;;;;;;;;;5073026;28;20225;-69
2023/01/24 08:46:44;;;;;;;72.55;14.68;;;;;;;;;;5072843;28;20211;-69
2023/01/24 08:49:11;;;;;;;77.25;15.15;;;;;;;;;;5072398;28;20251;-69
2023/01/24 08:51:39;;;;;;;76.28;15.55;;;;;;;;;;5072649;28;20209;-70
2023/01/24 08:54:06;;;;;;;75.20;15.00;;;;;;;;;;5072773;28;20225;-69
2023/01/24 08:56:35;;;;;;;73.80;13.40;;;;;;;;;;5072598;28;20206;-69
2023/01/24 08:59:02;;;;;;;72.72;14.95;;;;;;;;;;5071895;28;20589;-70
2023/01/24 09:01:29;;;;;;;75.32;14.55;;;;;;;;;;5072524;28;20205;-70
2023/01/24 09:03:56;;;;;;;76.85;15.68;;;;;;;;;;5072392;28;20232;-69
2023/01/24 09:06:24;;;;;;;75.20;14.75;;;;;;;;;;5072222;28;20708;-69
2023/01/24 09:08:53;;;;;;;79.13;16.40;;;;;;;;;;5071914;28;20225;-69
2023/01/24 09:11:20;;;;;;;78.95;15.43;;;;;;;;;;5072280;28;20205;-70
2023/01/24 09:13:49;;;;;;;73.57;14.80;;;;;;;;;;5072356;28;20224;-70
2023/01/24 09:16:16;;;;;;;75.75;16.00;;;;;;;;;;5072444;28;20666;-69
2023/01/24 09:18:43;;;;;;;72.95;14.77;;;;;;;;;;5071659;28;20204;-70
2023/01/24 09:21:10;;;;;;;73.93;14.95;;;;;;;;;;5072369;28;20201;-69
2023/01/24 09:23:37;;;;;;;72.22;13.27;;;;;;;;;;5071861;28;20717;-70
2023/01/24 09:26:04;;;;;;;76.22;15.48;;;;;;;;;;5072189;28;20212;-69
2023/01/24 09:28:33;;;;;;;71.53;12.82;;;;;;;;;;5071552;28;20299;-69
2023/01/24 09:31:02;;;;;;;78.90;17.15;;;;;;;;;;5071951;28;20205;-69
2023/01/24 09:33:29;;;;;;;71.55;14.07;;;;;;;;;;5072110;28;20225;-70
2023/01/24 09:35:57;;;;;;;77.80;14.30;;;;;;;;;;5071925;28;20237;-69
2023/01/24 09:38:24;;;;;;;75.82;15.25;;;;;;;;;;5071734;28;20212;-70
2023/01/24 09:40:56;;;;;;;72.55;14.13;;;;;;;;;;5071350;28;20209;-70
2023/01/24 09:43:32;;;;;;;73.80;14.00;;;;;;;;;;5071845;28;20311;-70
2023/01/24 09:46:05;;;;;;;70.90;13.57;;;;;;;;;;5072124;28;20221;-70
2023/01/24 09:48:34;;;;;;;73.33;12.80;;;;;;;;;;5071326;28;20208;-69
2023/01/24 09:51:03;;;;;;;72.40;13.60;;;;;;;;;;5071934;28;20842;-70
2023/01/24 09:53:31;;;;;;;71.40;12.63;;;;;;;;;;5071792;28;20244;-69
2023/01/24 09:55:59;;;;;;;72.53;12.90;;;;;;;;;;5071638;28;20224;-69
2023/01/24 09:58:31;;;;;;;72.83;14.07;;;;;;;;;;5071807;28;20209;-69
2023/01/24 10:01:00;;;;;;;71.45;13.63;;;;;;;;;;5071906;28;20455;-70
2023/01/24 10:03:28;;;;;;;76.20;14.07;;;;;;;;;;5071713;28;20274;-70
2023/01/24 10:05:57;;;;;;;70.15;11.40;;;;;;;;;;5071677;28;20452;-70
2023/01/24 10:08:28;;;;;;;70.95;12.82;;;;;;;;;;5071331;28;20212;-70
2023/01/24 10:10:58;;;;;;;70.32;11.40;;;;;;;;;;5071341;28;20205;-69
2023/01/24 10:13:38;;;;;;;69.35;11.63;;;;;;;;;;5071666;28;20225;-70
2023/01/24 10:16:11;;;;;;;72.53;12.57;;;;;;;;;;5071694;28;20209;-69
2023/01/24 10:18:48;;;;;;;72.75;14.23;;;;;;;;;;5073101;28;20673;-70
2023/01/24 10:21:36;;;;;;;78.22;15.98;;;;;;;;;;5075836;28;20218;-70
2023/01/24 10:24:06;;;;;;;69.60;11.07;;;;;;;;;;5049826;28;20237;-70
2023/01/24 10:26:38;;;;;;;71.68;12.75;;;;;;;;;;5075502;28;20641;-70
2023/01/24 10:29:11;;;;;;;69.80;11.50;;;;;;;;;;5074647;28;20326;-70
2023/01/24 10:31:40;;;;;;;67.82;11.07;;;;;;;;;;5075757;28;20213;-70
2023/01/24 10:34:12;;;;;;;69.07;10.57;;;;;;;;;;5075472;28;20231;-69
2023/01/24 10:36:43;;;;;;;69.85;11.55;;;;;;;;;;5075566;28;20216;-69
2023/01/24 10:39:11;;;;;;;69.50;11.88;;;;;;;;;;5074638;28;20196;-69
2023/01/24 10:41:39;;;;;;;71.00;11.02;;;;;;;;;;5075353;28;20205;-69
2023/01/24 10:44:10;;;;;;;68.07;10.82;;;;;;;;;;5075128;28;20229;-69
2023/01/24 10:46:45;;;;;;;68.00;10.73;;;;;;;;;;5075412;28;20216;-70
2023/01/24 10:49:16;;;;;;;68.97;10.83;;;;;;;;;;5074427;28;20890;-69
2023/01/24 10:51:43;;;;;;;67.53;11.53;;;;;;;;;;5074810;28;20443;-69
2023/01/24 10:54:19;;;;;;;69.37;10.70;;;;;;;;;;5074871;28;20471;-69
2023/01/24 10:56:47;;;;;;;67.00;9.80;;;;;;;;;;5075441;28;20449;-69
2023/01/24 10:59:15;;;;;;;71.72;11.85;;;;;;;;;;5074139;28;20458;-69
2023/01/24 11:01:44;;;;;;;66.67;10.33;;;;;;;;;;5074958;28;20209;-69
2023/01/24 11:04:17;;;;;;;65.87;9.63;;;;;;;;;;5074759;28;20468;-70
2023/01/24 11:06:46;;;;;;;66.47;11.00;;;;;;;;;;5074967;28;20451;-70
2023/01/24 11:09:15;;;;;;;66.90;10.07;;;;;;;;;;5073765;28;20850;-69
2023/01/24 11:11:45;;;;;;;67.90;10.00;;;;;;;;;;5074569;28;20451;-70
2023/01/24 11:14:14;;;;;;;68.10;10.37;;;;;;;;;;5074665;28;20559;-70
2023/01/24 11:16:43;;;;;;;68.90;11.47;;;;;;;;;;5074731;28;20450;-70
2023/01/24 11:19:26;;;;;;;69.40;10.40;;;;;;;;;;5073698;28;20446;-70
2023/01/24 11:21:55;;;;;;;71.17;10.93;;;;;;;;;;5074551;28;20952;-70
2023/01/24 11:24:24;;;;;;;66.80;9.93;;;;;;;;;;5074495;28;20485;-69
2023/01/24 11:26:59;;;;;;;68.30;10.57;;;;;;;;;;5074646;28;20454;-70
2023/01/24 11:29:26;;;;;;;67.80;10.87;;;;;;;;;;5073300;28;20478;-70
2023/01/24 11:31:55;;;;;;;69.27;12.10;;;;;;;;;;5074414;28;20455;-70
2023/01/24 11:34:37;;;;;;;71.50;11.53;;;;;;;;;;5074454;28;20464;-70
2023/01/24 11:37:07;;;;;;;67.70;10.90;;;;;;;;;;5074375;28;20817;-69
2023/01/24 11:39:39;;;;;;;74.90;10.87;;;;;;;;;;5073499;28;20446;-70
2023/01/24 11:42:10;;;;;;;69.10;10.85;;;;;;;;;;5074143;28;20444;-69
2023/01/24 11:44:51;;;;;;;69.13;11.67;;;;;;;;;;5074132;28;20200;-70
2023/01/24 11:47:20;;;;;;;66.43;10.40;;;;;;;;;;5074360;28;20447;-69
2023/01/24 11:50:09;;;;;;;68.85;11.90;;;;;;;;;;5073344;28;20486;-70
2023/01/24 11:52:57;;;;;;;68.60;11.40;;;;;;;;;;5073747;28;20225;-69
2023/01/24 11:55:35;;;;;;;68.30;11.93;;;;;;;;;;5069126;28;20806;-70
2023/01/24 11:58:12;;;;;;;68.43;10.67;;;;;;;;;;5073758;28;20451;-69
2023/01/24 12:00:43;;;;;;;69.65;12.30;;;;;;;;;;5073228;28;20439;-70
2023/01/24 12:03:18;;;;;;;68.00;11.20;;;;;;;;;;5073857;28;20713;-69
2023/01/24 12:05:53;;;;;;;69.90;11.60;;;;;;;;;;5073670;28;20453;-69
2023/01/24 12:08:28;;;;;;;68.00;11.43;;;;;;;;;;5073719;28;20451;-69
2023/01/24 12:11:01;;;;;;;69.07;12.00;;;;;;;;;;5073230;28;20487;-70
2023/01/24 12:13:33;;;;;;;69.50;11.57;;;;;;;;;;5073499;28;20489;-70
2023/01/24 12:16:05;;;;;;;67.50;10.73;;;;;;;;;;5073836;28;20546;-69
2023/01/24 12:18:47;;;;;;;69.90;11.57;;;;;;;;;;5073064;28;20217;-70
2023/01/24 12:21:14;;;;;;;68.20;10.80;;;;;;;;;;5073449;28;20439;-69
2023/01/24 12:23:49;;;;;;;69.50;11.30;;;;;;;;;;5073168;28;20463;-69
2023/01/24 12:26:19;;;;;;;71.90;12.30;;;;;;;;;;5073547;28;20214;-70
2023/01/24 12:28:51;;;;;;;70.77;12.60;;;;;;;;;;5072697;28;20458;-69
2023/01/24 12:31:23;;;;;;;70.03;11.15;;;;;;;;;;5073302;28;20490;-70
2023/01/24 12:33:53;;;;;;;67.47;10.30;;;;;;;;;;5073052;28;20232;-69
2023/01/24 12:36:25;;;;;;;70.10;11.40;;;;;;;;;;5073083;28;20677;-69
2023/01/24 12:38:55;;;;;;;69.95;10.77;;;;;;;;;;5072602;28;20237;-69
2023/01/24 12:41:27;;;;;;;68.97;12.03;;;;;;;;;;5072343;28;20223;-69
2023/01/24 12:43:58;;;;;;;67.17;10.93;;;;;;;;;;5073134;28;20471;-70
2023/01/24 12:46:27;;;;;;;70.07;11.38;;;;;;;;;;5072924;28;20978;-69
2023/01/24 12:48:58;;;;;;;69.10;11.40;;;;;;;;;;5071936;28;20216;-69
2023/01/24 12:51:28;;;;;;;72.93;13.02;;;;;;;;;;5072806;28;20228;-69
2023/01/24 12:53:59;;;;;;;69.15;11.32;;;;;;;;;;5072849;28;20229;-69
2023/01/24 12:56:29;;;;;;;70.38;11.07;;;;;;;;;;5072849;28;20205;-69
2023/01/24 12:58:57;;;;;;;70.17;11.63;;;;;;;;;;5072016;28;20201;-69
2023/01/24 13:01:32;;;;;;;73.70;11.15;;;;;;;;;;5072538;28;20479;-68
2023/01/24 13:04:04;;;;;;;69.90;11.15;;;;;;;;;;5072460;28;20307;-69
2023/01/24 13:06:36;;;;;;;69.25;12.35;;;;;;;;;;5072699;28;20217;-69
2023/01/24 13:09:08;;;;;;;69.03;10.75;;;;;;;;;;5071776;28;20209;-70
2023/01/24 13:11:41;;;;;;;70.63;10.75;;;;;;;;;;5072560;28;20228;-69
2023/01/24 13:14:13;;;;;;;68.53;11.65;;;;;;;;;;5072182;28;20225;-69
2023/01/24 13:16:49;;;;;;;70.03;10.65;;;;;;;;;;5072416;28;20212;-69
2023/01/24 13:19:22;;;;;;;68.00;11.52;;;;;;;;;;5071645;28;20257;-69
2023/01/24 13:21:52;;;;;;;66.32;9.93;;;;;;;;;;5072344;28;20211;-69
2023/01/24 13:24:27;;;;;;;69.18;11.55;;;;;;;;;;5071866;28;20717;-69
2023/01/24 13:27:01;;;;;;;68.20;10.77;;;;;;;;;;5072123;28;20692;-69
2023/01/24 13:29:36;;;;;;;69.40;11.02;;;;;;;;;;5071646;28;20209;-70
2023/01/24 13:32:07;;;;;;;69.50;12.82;;;;;;;;;;5072209;28;20255;-69
2023/01/24 13:34:36;;;;;;;67.03;11.23;;;;;;;;;;5072109;28;20590;-68
2023/01/24 13:37:03;;;;;;;70.10;11.73;;;;;;;;;;5071944;28;20205;-69
2023/01/24 13:39:32;;;;;;;66.35;10.90;;;;;;;;;;5071347;28;20224;-69
2023/01/24 13:42:06;;;;;;;75.55;11.95;;;;;;;;;;5071893;28;20209;-69
2023/01/24 13:44:35;;;;;;;69.97;10.18;;;;;;;;;;5072060;28;20209;-69
2023/01/24 13:47:36;;;;;;;70.30;12.45;;;;;;;;;;5071772;28;20678;-69
2023/01/24 13:50:13;;;;;;;71.93;11.57;;;;;;;;;;5071148;28;20221;-69
2023/01/24 13:52:41;;;;;;;68.40;10.98;;;;;;;;;;5071809;28;20590;-69
2023/01/24 13:55:23;;;;;;;73.93;12.40;;;;;;;;;;5071717;28;20202;-69
2023/01/24 13:58:12;;;;;;;69.75;12.75;;;;;;;;;;5071498;28;20581;-69
2023/01/24 14:00:48;;;;;;;72.88;10.48;;;;;;;;;;5070907;28;20208;-69
2023/01/24 14:03:19;;;;;;;70.07;12.20;;;;;;;;;;5071725;28;20224;-69
2023/01/24 14:05:57;;;;;;;67.95;11.55;;;;;;;;;;5071689;28;20271;-70
2023/01/24 14:08:36;;;;;;;69.60;11.43;;;;;;;;;;5071721;28;20622;-69
2023/01/24 14:11:23;;;;;;;70.00;11.40;;;;;;;;;;5071604;28;20705;-70
2023/01/24 14:13:56;;;;;;;70.00;12.52;;;;;;;;;;5071486;28;20225;-69
2023/01/24 14:16:41;;;;;;;67.82;10.70;;;;;;;;;;5071455;28;20205;-70
2023/01/24 14:19:15;;;;;;;69.07;11.48;;;;;;;;;;5060817;28;20205;-69
2023/01/24 14:21:48;;;;;;;67.50;11.73;;;;;;;;;;5071724;28;20579;-69
2023/01/24 14:24:21;;;;;;;75.03;11.52;;;;;;;;;;5071393;28;20294;-69
2023/01/24 14:26:52;;;;;;;68.72;12.45;;;;;;;;;;5071403;28;20205;-69
2023/01/24 14:29:21;;;;;;;67.45;11.20;;;;;;;;;;5070838;28;20258;-69
2023/01/24 14:31:53;;;;;;;70.60;12.27;;;;;;;;;;5071554;28;20232;-69
2023/01/24 14:34:23;;;;;;;68.57;11.55;;;;;;;;;;5071485;28;20274;-70
2023/01/24 14:36:58;;;;;;;69.68;12.60;;;;;;;;;;5071504;28;20573;-69
2023/01/24 14:39:26;;;;;;;72.57;11.85;;;;;;;;;;5070613;28;20213;-69
2023/01/24 14:41:55;;;;;;;69.28;11.93;;;;;;;;;;5071696;28;20555;-70
2023/01/24 14:44:25;;;;;;;69.82;11.82;;;;;;;;;;5071203;28;20231;-70
2023/01/24 14:46:53;;;;;;;70.55;11.90;;;;;;;;;;5071359;28;20292;-70
2023/01/24 14:49:26;;;;;;;72.03;13.10;;;;;;;;;;5070438;28;20205;-70
2023/01/24 14:51:53;;;;;;;69.03;11.98;;;;;;;;;;5071092;28;20228;-69
2023/01/24 14:54:22;;;;;;;72.70;13.30;;;;;;;;;;5071070;28;20231;-70
2023/01/24 14:56:49;;;;;;;75.13;12.70;;;;;;;;;;5071265;28;20212;-70
2023/01/24 14:59:18;;;;;;;72.78;13.32;;;;;;;;;;5070390;28;20208;-70
2023/01/24 15:01:47;;;;;;;69.65;12.55;;;;;;;;;;5071039;28;20623;-69
2023/01/24 15:04:23;;;;;;;71.18;12.93;;;;;;;;;;5072390;28;20225;-70
2023/01/24 15:07:04;;;;;;;71.55;13.95;;;;;;;;;;5074716;28;20669;-70